KMSN/MSN METAR and TAF weather

Enter ICAO airport designator
Station Type Date Time Source
KMSN METAR 2022/11/26 08:53 UTC NOAA

KMSN 260853Z AUTO 22007KT 10SM CLR 05/M04 A3002 RMK AO2 SLP170 T00501039 56019


Station Type Date Time Source
KMSN Decoded METAR 2022/11/26 08:53 UTC NOAA

MADISON DANE COUNTY RGNL, WI, United States (KMSN) 43-08N 89-21W 261M
Nov 26, 2022 - 03:53 AM EST / 2022.11.26 0853 UTC
Wind: from the SW (220 degrees) at 8 MPH (7 KT):0
Visibility: 10 mile(s):0
Sky conditions: clear
Temperature: 41.0 F (5.0 C)
Dew Point: 25.0 F (-3.9 C)
Relative Humidity: 52%
Pressure (altimeter): 30.02 in. Hg (1016 hPa)
Pressure tendency: 0.06 inches (1.9 hPa) lower than three hours ago
ob: KMSN 260853Z AUTO 22007KT 10SM CLR 05/M04 A3002 RMK AO2 SLP170 T00501039 56019
cycle: 9

Station Type Date Time Source
KMSN TAF 2022/11/26 09:06 UTC NOAA

TAF
AMD KMSN 260903Z 2609/2706 23008KT P6SM FEW250 WS020/25030KT
FM261400 22010G18KT P6SM SKC
FM261700 22012G28KT P6SM FEW250
FM262200 21012KT P6SM BKN150
FM270500 VRB03KT P6SM OVC150

Example: see airport list